Time,TemperatureF,DewpointF,PressureIn,WindDirection,WindDirectionDegrees,WindSpeedMPH,WindSpeedGustMPH,Humidity,HourlyPrecipIn,Conditions,Clouds,dailyrainin,SoftwareType,DateUTC
2013-05-05 00:00:00,41.6,32.6,30.37,NNE,23,0.0,0.0,70,0.00,,,0.00,WUHU216HW,2013-05-05 04:00:00,
2013-05-05 00:01:00,41.6,32.6,30.37,NNE,23,0.0,0.0,70,0.00,,,0.00,WUHU216HW,2013-05-05 04:01:00,
2013-05-05 00:02:00,41.6,32.6,30.37,NNE,23,0.0,0.0,70,0.00,,,0.00,WUHU216HW,2013-05-05 04:02:00,
2013-05-05 00:07:00,41.6,32.6,30.37,NNE,23,0.0,0.0,70,0.00,,,0.00,WUHU216HW,2013-05-05 04:07:00,
2013-05-05 00:30:00,40.7,32.1,30.37,NNE,23,0.0,0.0,71,0.00,,,0.00,WUHU216HW,2013-05-05 04:30:00,
2013-05-05 00:35:00,40.7,32.1,30.37,NNE,23,0.0,0.0,71,0.00,,,0.00,WUHU216HW,2013-05-05 04:35:00,
2013-05-05 00:59:00,39.8,31.4,30.37,NNE,23,0.0,0.0,72,0.00,,,0.00,WUHU216HW,2013-05-05 04:59:00,
2013-05-05 01:00:00,39.8,31.4,30.37,NNE,23,0.0,0.0,72,0.00,,,0.00,WUHU216HW,2013-05-05 05:00:00,
2013-05-05 01:05:00,39.8,31.4,30.37,NNE,23,0.0,0.0,72,0.00,,,0.00,WUHU216HW,2013-05-05 05:05:00,
2013-05-05 01:29:00,38.7,30.8,30.36,NNE,23,0.0,0.0,73,0.00,,,0.00,WUHU216HW,2013-05-05 05:29:00,
2013-05-05 01:30:00,38.7,30.8,30.36,NNE,23,0.0,0.0,73,0.00,,,0.00,WUHU216HW,2013-05-05 05:30:00,
2013-05-05 01:35:00,38.7,30.8,30.36,NNE,23,0.0,0.0,73,0.00,,,0.00,WUHU216HW,2013-05-05 05:35:00,
2013-05-05 01:59:00,38.2,30.6,30.35,NNE,23,0.0,0.0,74,0.00,,,0.00,WUHU216HW,2013-05-05 05:59:00,
2013-05-05 02:00:00,38.2,30.6,30.35,NNE,23,0.0,0.0,74,0.00,,,0.00,WUHU216HW,2013-05-05 06:00:00,
2013-05-05 02:05:00,38.2,30.6,30.35,NNE,23,0.0,0.0,74,0.00,,,0.00,WUHU216HW,2013-05-05 06:05:00,
2013-05-05 02:29:00,37.4,29.9,30.35,NNE,23,0.0,0.0,74,0.00,,,0.00,WUHU216HW,2013-05-05 06:29:00,
2013-05-05 02:30:00,37.4,29.9,30.35,NNE,23,0.0,0.0,74,0.00,,,0.00,WUHU216HW,2013-05-05 06:30:00,
2013-05-05 02:35:00,37.4,29.9,30.35,NNE,23,0.0,0.0,74,0.00,,,0.00,WUHU216HW,2013-05-05 06:35:00,
2013-05-05 03:00:00,36.9,29.7,30.35,NNE,23,0.0,0.0,75,0.00,,,0.00,WUHU216HW,2013-05-05 07:00:00,
2013-05-05 03:05:00,36.9,29.7,30.35,NNE,23,0.0,0.0,75,0.00,,,0.00,WUHU216HW,2013-05-05 07:05:00,
2013-05-05 03:30:00,36.4,29.2,30.35,NNE,23,0.0,0.0,75,0.00,,,0.00,WUHU216HW,2013-05-05 07:30:00,
2013-05-05 03:35:00,36.4,29.2,30.35,NNE,23,0.0,0.0,75,0.00,,,0.00,WUHU216HW,2013-05-05 07:35:00,
2013-05-05 03:59:00,36.0,28.8,30.35,NNE,23,0.0,0.0,75,0.00,,,0.00,WUHU216HW,2013-05-05 07:59:00,
2013-05-05 04:00:00,36.0,28.8,30.35,NNE,23,0.0,0.0,75,0.00,,,0.00,WUHU216HW,2013-05-05 08:00:00,
2013-05-05 04:05:00,36.0,28.8,30.35,NNE,23,0.0,0.0,75,0.00,,,0.00,WUHU216HW,2013-05-05 08:05:00,
2013-05-05 04:29:00,35.5,28.6,30.34,NNE,23,0.0,0.0,76,0.00,,,0.00,WUHU216HW,2013-05-05 08:29:00,
2013-05-05 04:30:00,35.5,28.6,30.34,NNE,23,0.0,0.0,76,0.00,,,0.00,WUHU216HW,2013-05-05 08:30:00,
2013-05-05 04:35:00,35.5,28.6,30.34,NNE,23,0.0,0.0,76,0.00,,,0.00,WUHU216HW,2013-05-05 08:35:00,
2013-05-05 04:59:00,34.9,28.1,30.34,NNE,23,0.0,0.0,76,0.00,,,0.00,WUHU216HW,2013-05-05 08:59:00,
2013-05-05 05:00:00,34.9,28.1,30.34,NNE,23,0.0,0.0,76,0.00,,,0.00,WUHU216HW,2013-05-05 09:00:00,
2013-05-05 05:05:00,34.9,28.1,30.34,NNE,23,0.0,0.0,76,0.00,,,0.00,WUHU216HW,2013-05-05 09:05:00,
2013-05-05 05:29:00,34.4,27.6,30.34,NNE,23,0.0,0.0,76,0.00,,,0.00,WUHU216HW,2013-05-05 09:29:00,
2013-05-05 05:30:00,34.4,27.6,30.34,NNE,23,0.0,0.0,76,0.00,,,0.00,WUHU216HW,2013-05-05 09:30:00,
2013-05-05 05:35:00,34.4,27.6,30.34,NNE,23,0.0,0.0,76,0.00,,,0.00,WUHU216HW,2013-05-05 09:35:00,
2013-05-05 05:59:00,34.2,28.0,30.35,NNE,23,0.0,0.0,78,0.00,,,0.00,WUHU216HW,2013-05-05 09:59:00,
2013-05-05 06:00:00,34.2,28.0,30.35,NNE,23,0.0,0.0,78,0.00,,,0.00,WUHU216HW,2013-05-05 10:00:00,
2013-05-05 06:05:00,34.2,28.0,30.35,NNE,23,0.0,0.0,78,0.00,,,0.00,WUHU216HW,2013-05-05 10:05:00,
2013-05-05 06:30:00,34.6,28.6,30.36,NNE,23,0.0,0.0,79,0.00,,,0.00,WUHU216HW,2013-05-05 10:30:00,
2013-05-05 06:35:00,34.6,28.6,30.36,NNE,23,0.0,0.0,79,0.00,,,0.00,WUHU216HW,2013-05-05 10:35:00,
2013-05-05 07:00:00,36.0,30.4,30.36,NNE,23,0.0,0.0,80,0.00,,,0.00,WUHU216HW,2013-05-05 11:00:00,
2013-05-05 07:05:00,36.0,30.4,30.36,NNE,23,0.0,0.0,80,0.00,,,0.00,WUHU216HW,2013-05-05 11:05:00,
2013-05-05 07:10:00,36.0,30.4,30.36,NNE,23,0.0,0.0,80,0.00,,,0.00,WUHU216HW,2013-05-05 11:10:00,
2013-05-05 07:30:00,39.1,34.7,30.37,WNW,293,0.9,0.9,84,0.00,,,0.00,WUHU216HW,2013-05-05 11:30:00,
2013-05-05 07:35:00,39.1,34.7,30.37,WNW,293,0.9,0.9,84,0.00,,,0.00,WUHU216HW,2013-05-05 11:35:00,
2013-05-05 07:59:00,42.7,37.8,30.37,NW,315,0.0,0.0,83,0.00,,,0.00,WUHU216HW,2013-05-05 11:59:00,
2013-05-05 08:00:00,42.7,37.8,30.37,NW,315,0.0,0.0,83,0.00,,,0.00,WUHU216HW,2013-05-05 12:00:00,
2013-05-05 08:05:00,42.7,37.8,30.37,NW,315,0.0,0.0,83,0.00,,,0.00,WUHU216HW,2013-05-05 12:05:00,
2013-05-05 08:30:00,47.0,40.9,30.37,WNW,293,0.9,0.9,79,0.00,,,0.00,WUHU216HW,2013-05-05 12:30:00,
2013-05-05 08:35:00,47.0,40.9,30.37,WNW,293,0.9,0.9,79,0.00,,,0.00,WUHU216HW,2013-05-05 12:35:00,
2013-05-05 08:59:00,51.3,42.7,30.36,NNE,23,1.3,1.3,72,0.00,,,0.00,WUHU216HW,2013-05-05 12:59:00,
2013-05-05 09:00:00,51.3,42.7,30.36,NNE,23,1.3,1.3,72,0.00,,,0.00,WUHU216HW,2013-05-05 13:00:00,
2013-05-05 09:05:00,51.3,42.7,30.36,NNE,23,1.3,1.3,72,0.00,,,0.00,WUHU216HW,2013-05-05 13:05:00,
2013-05-05 09:30:00,55.1,42.7,30.36,WNW,293,1.3,1.3,63,0.00,,,0.00,WUHU216HW,2013-05-05 13:30:00,
2013-05-05 09:35:00,55.1,42.7,30.36,WNW,293,1.3,1.3,63,0.00,,,0.00,WUHU216HW,2013-05-05 13:35:00,
2013-05-05 09:59:00,55.8,42.1,30.35,SSW,203,2.5,2.5,60,0.00,,,0.00,WUHU216HW,2013-05-05 13:59:00,
2013-05-05 10:00:00,55.8,42.1,30.35,SSW,203,2.5,2.5,60,0.00,,,0.00,WUHU216HW,2013-05-05 14:00:00,
2013-05-05 10:05:00,55.8,42.1,30.35,SSW,203,2.5,2.5,60,0.00,,,0.00,WUHU216HW,2013-05-05 14:05:00,
2013-05-05 10:30:00,59.4,44.1,30.35,SSE,158,1.1,1.1,57,0.00,,,0.00,WUHU216HW,2013-05-05 14:30:00,
2013-05-05 10:35:00,59.4,44.1,30.35,SSE,158,1.1,1.1,57,0.00,,,0.00,WUHU216HW,2013-05-05 14:35:00,
2013-05-05 10:59:00,61.9,45.0,30.35,North,0,1.1,1.1,54,0.00,,,0.00,WUHU216HW,2013-05-05 14:59:00,
2013-05-05 11:00:00,61.9,45.0,30.35,North,0,1.1,1.1,54,0.00,,,0.00,WUHU216HW,2013-05-05 15:00:00,
2013-05-05 11:05:00,61.9,45.0,30.35,North,0,1.1,1.1,54,0.00,,,0.00,WUHU216HW,2013-05-05 15:05:00,
2013-05-05 11:29:00,64.4,44.2,30.34,ENE,68,1.1,1.1,48,0.00,,,0.00,WUHU216HW,2013-05-05 15:29:00,
2013-05-05 11:30:00,64.4,44.2,30.34,ENE,68,1.1,1.1,48,0.00,,,0.00,WUHU216HW,2013-05-05 15:30:00,
2013-05-05 11:35:00,64.4,44.2,30.34,ENE,68,1.1,1.1,48,0.00,,,0.00,WUHU216HW,2013-05-05 15:35:00,
2013-05-05 11:59:00,65.7,44.3,30.33,SE,135,0.7,0.7,46,0.00,,,0.00,WUHU216HW,2013-05-05 15:59:00,
2013-05-05 12:00:00,65.7,44.3,30.33,SE,135,0.7,0.7,46,0.00,,,0.00,WUHU216HW,2013-05-05 16:00:00,
2013-05-05 12:05:00,65.7,44.3,30.33,SE,135,0.7,0.7,46,0.00,,,0.00,WUHU216HW,2013-05-05 16:05:00,
2013-05-05 12:29:00,66.6,43.9,30.33,NNE,23,2.7,2.7,44,0.00,,,0.00,WUHU216HW,2013-05-05 16:29:00,
2013-05-05 12:30:00,66.6,43.9,30.33,NNE,23,2.7,2.7,44,0.00,,,0.00,WUHU216HW,2013-05-05 16:30:00,
2013-05-05 12:35:00,66.6,43.9,30.33,NNE,23,2.7,2.7,44,0.00,,,0.00,WUHU216HW,2013-05-05 16:35:00,
2013-05-05 13:00:00,67.3,44.0,30.33,SE,135,1.1,1.1,43,0.00,,,0.00,WUHU216HW,2013-05-05 17:00:00,
2013-05-05 13:05:00,67.3,44.0,30.33,SE,135,1.1,1.1,43,0.00,,,0.00,WUHU216HW,2013-05-05 17:05:00,
2013-05-05 13:30:00,67.0,43.0,30.33,SE,135,1.1,1.1,42,0.00,,,0.00,WUHU216HW,2013-05-05 17:30:00,
2013-05-05 13:35:00,67.0,43.0,30.33,SE,135,1.1,1.1,42,0.00,,,0.00,WUHU216HW,2013-05-05 17:35:00,
2013-05-05 13:59:00,68.0,43.5,30.33,ENE,68,3.6,3.6,41,0.00,,,0.00,WUHU216HW,2013-05-05 17:59:00,
2013-05-05 14:00:00,68.0,43.5,30.33,ENE,68,3.6,3.6,41,0.00,,,0.00,WUHU216HW,2013-05-05 18:00:00,
2013-05-05 14:05:00,68.0,43.5,30.33,ENE,68,3.6,3.6,41,0.00,,,0.00,WUHU216HW,2013-05-05 18:05:00,
2013-05-05 14:29:00,67.1,42.0,30.32,WNW,293,2.9,2.9,40,0.00,,,0.00,WUHU216HW,2013-05-05 18:29:00,
2013-05-05 14:30:00,67.1,42.0,30.32,WNW,293,2.9,2.9,40,0.00,,,0.00,WUHU216HW,2013-05-05 18:30:00,
2013-05-05 14:35:00,67.1,42.0,30.32,WNW,293,2.9,2.9,40,0.00,,,0.00,WUHU216HW,2013-05-05 18:35:00,
2013-05-05 14:59:00,67.1,42.7,30.32,SW,225,1.8,1.8,41,0.00,,,0.00,WUHU216HW,2013-05-05 18:59:00,
2013-05-05 15:00:00,67.1,42.7,30.32,SW,225,1.8,1.8,41,0.00,,,0.00,WUHU216HW,2013-05-05 19:00:00,
2013-05-05 15:05:00,67.1,42.7,30.32,SW,225,1.8,1.8,41,0.00,,,0.00,WUHU216HW,2013-05-05 19:05:00,
2013-05-05 15:29:00,67.5,42.9,30.31,NE,45,1.3,1.3,41,0.00,,,0.00,WUHU216HW,2013-05-05 19:29:00,
2013-05-05 15:30:00,67.5,42.9,30.31,NE,45,1.3,1.3,41,0.00,,,0.00,WUHU216HW,2013-05-05 19:30:00,
2013-05-05 15:35:00,67.5,42.9,30.31,NE,45,1.3,1.3,41,0.00,,,0.00,WUHU216HW,2013-05-05 19:35:00,
2013-05-05 15:59:00,67.3,42.2,30.30,East,90,1.3,1.3,40,0.00,,,0.00,WUHU216HW,2013-05-05 19:59:00,
2013-05-05 16:00:00,67.3,42.2,30.30,East,90,1.3,1.3,40,0.00,,,0.00,WUHU216HW,2013-05-05 20:00:00,
2013-05-05 16:05:00,67.3,42.2,30.30,East,90,1.3,1.3,40,0.00,,,0.00,WUHU216HW,2013-05-05 20:05:00,
2013-05-05 16:29:00,65.9,41.5,30.30,South,180,1.1,1.1,41,0.00,,,0.00,WUHU216HW,2013-05-05 20:29:00,
2013-05-05 16:30:00,65.9,41.5,30.30,South,180,1.1,1.1,41,0.00,,,0.00,WUHU216HW,2013-05-05 20:30:00,
2013-05-05 16:35:00,65.9,41.5,30.30,South,180,1.1,1.1,41,0.00,,,0.00,WUHU216HW,2013-05-05 20:35:00,
2013-05-05 16:59:00,65.0,41.2,30.30,NE,45,1.1,1.1,42,0.00,,,0.00,WUHU216HW,2013-05-05 20:59:00,
2013-05-05 17:00:00,65.0,41.2,30.30,NE,45,1.1,1.1,42,0.00,,,0.00,WUHU216HW,2013-05-05 21:00:00,
2013-05-05 17:05:00,65.0,41.2,30.30,NE,45,1.1,1.1,42,0.00,,,0.00,WUHU216HW,2013-05-05 21:05:00,
2013-05-05 17:29:00,63.9,40.2,30.29,NNE,23,0.9,0.9,42,0.03,,,0.00,WUHU216HW,2013-05-05 21:29:00,
2013-05-05 17:30:00,63.9,40.2,30.29,NNE,23,0.9,0.9,42,0.03,,,0.00,WUHU216HW,2013-05-05 21:30:00,
2013-05-05 17:35:00,63.9,40.2,30.29,NNE,23,0.9,0.9,42,0.03,,,0.00,WUHU216HW,2013-05-05 21:35:00,
2013-05-05 18:00:00,60.8,39.8,30.29,WNW,293,0.4,0.4,46,0.06,,,0.04,WUHU216HW,2013-05-05 22:00:00,
2013-05-05 18:05:00,60.8,39.8,30.29,WNW,293,0.4,0.4,46,0.06,,,0.04,WUHU216HW,2013-05-05 22:05:00,
2013-05-05 18:30:00,58.7,39.1,30.29,NNE,23,1.3,1.3,48,0.03,,,0.06,WUHU216HW,2013-05-05 22:30:00,
2013-05-05 18:35:00,58.7,39.1,30.29,NNE,23,1.3,1.3,48,0.03,,,0.06,WUHU216HW,2013-05-05 22:35:00,
2013-05-05 18:59:00,56.3,38.4,30.30,NNE,23,0.9,0.9,51,0.00,,,0.06,WUHU216HW,2013-05-05 22:59:00,
2013-05-05 19:00:00,56.3,38.4,30.30,NNE,23,0.9,0.9,51,0.00,,,0.06,WUHU216HW,2013-05-05 23:00:00,
2013-05-05 19:05:00,56.3,38.4,30.30,NNE,23,0.9,0.9,51,0.00,,,0.06,WUHU216HW,2013-05-05 23:05:00,
2013-05-05 19:30:00,54.2,37.4,30.30,ESE,113,0.0,0.0,53,0.00,,,0.06,WUHU216HW,2013-05-05 23:30:00,
2013-05-05 19:35:00,54.2,37.4,30.30,ESE,113,0.0,0.0,53,0.00,,,0.06,WUHU216HW,2013-05-05 23:35:00,
2013-05-05 19:59:00,52.2,36.9,30.30,NNE,23,1.8,1.8,56,0.00,,,0.06,WUHU216HW,2013-05-05 23:59:00,
2013-05-05 20:00:00,52.2,36.9,30.30,NNE,23,1.8,1.8,56,0.00,,,0.06,WUHU216HW,2013-05-06 00:00:00,
2013-05-05 20:05:00,52.2,36.9,30.30,NNE,23,1.8,1.8,56,0.00,,,0.06,WUHU216HW,2013-05-06 00:05:00,
2013-05-05 20:29:00,50.6,36.3,30.31,NNE,23,0.0,0.0,58,0.00,,,0.06,WUHU216HW,2013-05-06 00:29:00,
2013-05-05 20:30:00,50.6,36.3,30.31,NNE,23,0.0,0.0,58,0.00,,,0.06,WUHU216HW,2013-05-06 00:30:00,
2013-05-05 20:35:00,50.6,36.3,30.31,NNE,23,0.0,0.0,58,0.00,,,0.06,WUHU216HW,2013-05-06 00:35:00,
2013-05-05 20:59:00,49.3,36.8,30.31,NNE,23,0.0,0.0,62,0.00,,,0.06,WUHU216HW,2013-05-06 00:59:00,
2013-05-05 21:00:00,49.3,36.8,30.31,NNE,23,0.0,0.0,62,0.00,,,0.06,WUHU216HW,2013-05-06 01:00:00,
2013-05-05 21:05:00,49.3,36.8,30.31,NNE,23,0.0,0.0,62,0.00,,,0.06,WUHU216HW,2013-05-06 01:05:00,
2013-05-05 21:29:00,48.1,36.1,30.32,NNE,23,0.0,0.0,63,0.00,,,0.06,WUHU216HW,2013-05-06 01:29:00,
2013-05-05 21:30:00,48.1,36.1,30.32,NNE,23,0.0,0.0,63,0.00,,,0.06,WUHU216HW,2013-05-06 01:30:00,
2013-05-05 21:35:00,48.1,36.1,30.32,NNE,23,0.0,0.0,63,0.00,,,0.06,WUHU216HW,2013-05-06 01:35:00,
2013-05-05 21:59:00,47.2,36.4,30.31,NNE,23,0.0,0.0,66,0.00,,,0.06,WUHU216HW,2013-05-06 01:59:00,
2013-05-05 22:00:00,47.2,36.4,30.31,NNE,23,0.0,0.0,66,0.00,,,0.06,WUHU216HW,2013-05-06 02:00:00,
2013-05-05 22:05:00,47.2,36.4,30.31,NNE,23,0.0,0.0,66,0.00,,,0.06,WUHU216HW,2013-05-06 02:05:00,
2013-05-05 22:29:00,45.4,36.2,30.31,NNE,23,0.0,0.0,70,0.00,,,0.06,WUHU216HW,2013-05-06 02:29:00,
2013-05-05 22:30:00,45.4,36.2,30.31,NNE,23,0.0,0.0,70,0.00,,,0.06,WUHU216HW,2013-05-06 02:30:00,
2013-05-05 22:35:00,45.4,36.2,30.31,NNE,23,0.0,0.0,70,0.00,,,0.06,WUHU216HW,2013-05-06 02:35:00,
2013-05-05 22:59:00,44.1,35.6,30.31,NNE,23,0.0,0.0,72,0.00,,,0.06,WUHU216HW,2013-05-06 02:59:00,
2013-05-05 23:00:00,44.1,35.6,30.31,NNE,23,0.0,0.0,72,0.00,,,0.06,WUHU216HW,2013-05-06 03:00:00,
2013-05-05 23:05:00,44.1,35.6,30.31,NNE,23,0.0,0.0,72,0.00,,,0.06,WUHU216HW,2013-05-06 03:05:00,
2013-05-05 23:29:00,43.0,34.7,30.31,NNE,23,0.0,0.0,72,0.00,,,0.06,WUHU216HW,2013-05-06 03:29:00,
2013-05-05 23:30:00,43.0,34.7,30.31,NNE,23,0.0,0.0,72,0.00,,,0.06,WUHU216HW,2013-05-06 03:30:00,
2013-05-05 23:35:00,43.0,34.7,30.31,NNE,23,0.0,0.0,72,0.00,,,0.06,WUHU216HW,2013-05-06 03:35:00,